Time;durP1;ratioP1;P1;durP2;ratioP2;P2;SDS_P1;SDS_P2;PMS_P1;PMS_P2;Temp;Humidity;BMP_temperature;BMP_pressure;BME280_temperature;BME280_humidity;BME280_pressure;Samples;Min_cycle;Max_cycle;Signal;HPM_P1;HPM_P2
2024/01/15 00:01:34;;;;;;;5.35;0.85;;;1.00;99.90;;;;;;5014799;28;20072;-74
2024/01/15 00:04:00;;;;;;;3.50;1.30;;;1.00;99.90;;;;;;5037402;28;20037;-74
2024/01/15 00:06:28;;;;;;;0.10;0.10;;;1.10;99.90;;;;;;5020295;28;20054;-74
2024/01/15 00:08:53;;;;;;;1.67;0.73;;;1.20;99.90;;;;;;5000213;28;20049;-73
2024/01/15 00:11:19;;;;;;;4.68;0.98;;;1.20;99.90;;;;;;5020329;28;20422;-73
2024/01/15 00:13:45;;;;;;;9.02;0.93;;;1.20;99.90;;;;;;5015176;28;20129;-74
2024/01/15 00:16:11;;;;;;;10.88;2.03;;;1.20;99.90;;;;;;5022471;28;20025;-73
2024/01/15 00:18:37;;;;;;;16.02;1.50;;;1.20;99.90;;;;;;4994758;28;20045;-73
2024/01/15 00:21:03;;;;;;;0.20;0.20;;;1.10;99.90;;;;;;4994524;28;20496;-73
2024/01/15 00:23:29;;;;;;;7.38;0.80;;;1.20;99.90;;;;;;5016546;28;20373;-73
2024/01/15 00:25:55;;;;;;;1.20;0.40;;;1.20;99.90;;;;;;4976836;28;20069;-73
2024/01/15 00:28:20;;;;;;;2.92;0.95;;;1.30;99.90;;;;;;5033550;28;20435;-73
2024/01/15 00:30:46;;;;;;;0.55;0.38;;;1.30;99.90;;;;;;4993356;28;20069;-73
2024/01/15 00:33:12;;;;;;;1.08;0.65;;;1.20;99.90;;;;;;5006461;28;20038;-73
2024/01/15 00:35:38;;;;;;;2.53;1.35;;;1.20;99.90;;;;;;5018451;28;20057;-73
2024/01/15 00:38:04;;;;;;;1.90;1.08;;;1.20;99.90;;;;;;5039335;28;20049;-73
2024/01/15 00:40:29;;;;;;;2.40;0.40;;;1.20;99.90;;;;;;5031168;28;20068;-73
2024/01/15 00:42:55;;;;;;;1.10;0.88;;;1.10;99.90;;;;;;4983531;28;20082;-73
2024/01/15 00:45:21;;;;;;;5.50;1.35;;;1.10;99.90;;;;;;5037348;28;20037;-73
2024/01/15 00:47:47;;;;;;;2.10;0.52;;;1.10;99.90;;;;;;5021116;28;20045;-73
2024/01/15 00:50:12;;;;;;;7.85;1.13;;;1.10;99.90;;;;;;5022953;28;20053;-73
2024/01/15 00:52:38;;;;;;;1.00;0.80;;;1.10;99.90;;;;;;5021573;28;20109;-74
2024/01/15 00:55:04;;;;;;;4.90;0.45;;;1.10;99.90;;;;;;5020241;28;20067;-73
2024/01/15 00:57:30;;;;;;;6.72;0.80;;;1.00;99.90;;;;;;5021299;28;20128;-74
2024/01/15 00:59:56;;;;;;;4.63;0.98;;;1.00;99.90;;;;;;5021051;28;20049;-73
2024/01/15 01:02:21;;;;;;;5.47;1.33;;;1.00;99.90;;;;;;4985296;28;20038;-73
2024/01/15 01:04:47;;;;;;;1.80;0.40;;;0.90;99.90;;;;;;4997811;28;20101;-73
2024/01/15 01:07:12;;;;;;;5.68;1.40;;;0.90;99.90;;;;;;5003525;28;20045;-73
2024/01/15 01:09:38;;;;;;;2.28;1.13;;;0.90;99.90;;;;;;4984666;28;20046;-73
2024/01/15 01:12:04;;;;;;;9.93;1.52;;;0.90;99.90;;;;;;5013104;28;20586;-73
2024/01/15 01:14:30;;;;;;;0.25;0.25;;;0.90;99.90;;;;;;4993816;28;20048;-72
2024/01/15 01:16:55;;;;;;;4.07;0.80;;;0.90;99.90;;;;;;5018887;28;20112;-73
2024/01/15 01:19:21;;;;;;;5.72;0.35;;;0.90;99.90;;;;;;5018432;28;20790;-73
2024/01/15 01:21:47;;;;;;;1.98;0.75;;;0.90;99.90;;;;;;5016939;28;20064;-73
2024/01/15 01:24:12;;;;;;;1.10;0.90;;;1.00;99.90;;;;;;5036587;28;20566;-72
2024/01/15 01:26:38;;;;;;;1.48;0.95;;;1.00;99.90;;;;;;5003253;28;20041;-72
2024/01/15 01:29:04;;;;;;;4.57;1.33;;;1.00;99.90;;;;;;5005285;28;20055;-72
2024/01/15 01:31:29;;;;;;;5.25;0.85;;;1.10;99.90;;;;;;5015458;28;20045;-73
2024/01/15 01:33:55;;;;;;;0.73;0.50;;;1.10;99.90;;;;;;5001620;28;20049;-73
2024/01/15 01:36:21;;;;;;;9.18;1.63;;;1.20;99.90;;;;;;5001033;28;21272;-73
2024/01/15 01:38:46;;;;;;;0.47;0.47;;;1.30;99.90;;;;;;5016962;28;20053;-73
2024/01/15 01:41:12;;;;;;;1.02;0.40;;;1.30;99.90;;;;;;5000186;28;20061;-73
2024/01/15 01:43:38;;;;;;;1.95;0.57;;;1.50;99.90;;;;;;5034849;28;20053;-73
2024/01/15 01:46:04;;;;;;;14.50;0.75;;;1.60;99.90;;;;;;5019149;28;20037;-73
2024/01/15 01:48:31;;;;;;;6.03;0.75;;;1.70;99.90;;;;;;5033541;28;20080;-73
2024/01/15 01:51:03;;;;;;;0.50;0.20;;;1.80;99.90;;;;;;5028546;28;20060;-73
2024/01/15 01:53:31;;;;;;;0.35;0.17;;;1.80;99.90;;;;;;5019425;28;20172;-73
2024/01/15 01:55:57;;;;;;;3.53;0.32;;;1.90;99.90;;;;;;4995797;28;20105;-74
2024/01/15 01:58:23;;;;;;;0.10;0.10;;;1.90;99.90;;;;;;5010228;28;20486;-74
2024/01/15 02:00:49;;;;;;;0.45;0.15;;;1.90;99.90;;;;;;4975559;28;20045;-74
2024/01/15 02:03:15;;;;;;;8.52;0.73;;;1.90;99.90;;;;;;5039359;28;20046;-73
2024/01/15 02:05:44;;;;;;;0.20;0.20;;;1.90;99.90;;;;;;4999874;28;20047;-74
2024/01/15 02:08:10;;;;;;;0.73;0.20;;;1.80;99.90;;;;;;5033794;28;20049;-73
2024/01/15 02:10:36;;;;;;;3.38;0.55;;;1.80;99.90;;;;;;4992891;28;20038;-73
2024/01/15 02:13:02;;;;;;;5.10;0.73;;;1.80;99.90;;;;;;5005109;28;20042;-74
2024/01/15 02:15:28;;;;;;;0.40;0.28;;;1.80;99.90;;;;;;5039555;28;20050;-74
2024/01/15 02:18:01;;;;;;;0.10;0.10;;;1.80;99.90;;;;;;5004394;28;20040;-74
2024/01/15 02:20:27;;;;;;;8.98;0.52;;;1.80;99.90;;;;;;5019559;28;20100;-74
2024/01/15 02:22:53;;;;;;;3.20;0.80;;;1.80;99.90;;;;;;5020199;28;20050;-74
2024/01/15 02:25:19;;;;;;;0.43;0.10;;;1.80;99.90;;;;;;4988496;28;20045;-75
2024/01/15 02:27:46;;;;;;;0.43;0.30;;;1.70;99.90;;;;;;5018928;28;20124;-75
2024/01/15 02:30:12;;;;;;;3.28;0.30;;;1.70;99.90;;;;;;5036200;28;20120;-74
2024/01/15 02:32:38;;;;;;;0.40;0.32;;;1.60;99.90;;;;;;5033522;28;20061;-75
2024/01/15 02:35:04;;;;;;;7.32;0.55;;;1.50;99.90;;;;;;5018217;28;20041;-73
2024/01/15 02:37:30;;;;;;;0.00;0.00;;;1.50;99.90;;;;;;5003190;28;20630;-75
2024/01/15 02:39:56;;;;;;;0.40;0.30;;;1.50;99.90;;;;;;5019257;28;20056;-75
2024/01/15 02:42:21;;;;;;;6.40;0.20;;;1.60;99.90;;;;;;5000013;28;20034;-75
2024/01/15 02:44:48;;;;;;;0.32;0.20;;;1.60;99.90;;;;;;5036416;28;20049;-75
2024/01/15 02:47:14;;;;;;;0.00;0.00;;;1.60;99.90;;;;;;5006202;28;20053;-74
2024/01/15 02:49:40;;;;;;;0.20;0.20;;;1.60;99.90;;;;;;4989563;28;20049;-74
2024/01/15 02:52:06;;;;;;;0.90;0.55;;;1.50;99.90;;;;;;5005388;28;20567;-75
2024/01/15 02:54:32;;;;;;;1.83;0.28;;;1.50;99.90;;;;;;5016286;28;20080;-74
2024/01/15 02:56:57;;;;;;;1.38;0.50;;;1.50;99.90;;;;;;4978375;28;20420;-74
2024/01/15 02:59:23;;;;;;;0.88;0.30;;;1.40;99.90;;;;;;4977756;28;20041;-74
2024/01/15 03:01:49;;;;;;;1.55;0.55;;;1.50;99.90;;;;;;5018807;28;20444;-75
2024/01/15 03:04:14;;;;;;;0.55;0.10;;;1.40;99.90;;;;;;5008542;28;20107;-75
2024/01/15 03:06:40;;;;;;;3.90;0.63;;;1.40;99.90;;;;;;4995021;28;20034;-74
2024/01/15 03:09:05;;;;;;;0.35;0.35;;;1.50;99.90;;;;;;5011199;28;20044;-75
2024/01/15 03:11:41;;;;;;;0.82;0.40;;;1.50;99.90;;;;;;4988123;28;20049;-75
2024/01/15 03:14:06;;;;;;;6.78;0.73;;;1.50;99.90;;;;;;4996751;28;20566;-75
2024/01/15 03:16:32;;;;;;;2.20;0.35;;;1.50;99.90;;;;;;5036716;28;20080;-74
2024/01/15 03:18:58;;;;;;;1.67;0.28;;;1.50;99.90;;;;;;5000089;28;20037;-75
2024/01/15 03:21:23;;;;;;;0.35;0.32;;;1.40;99.90;;;;;;4996049;28;20046;-75
2024/01/15 03:23:49;;;;;;;0.30;0.30;;;1.50;99.90;;;;;;5011249;28;20042;-74
2024/01/15 03:26:15;;;;;;;0.32;0.32;;;1.50;99.90;;;;;;4990803;28;20547;-74
2024/01/15 03:28:40;;;;;;;0.08;0.08;;;1.50;99.90;;;;;;4998170;28;20052;-74
2024/01/15 03:31:07;;;;;;;1.52;0.82;;;1.60;99.90;;;;;;4993765;28;20045;-75
2024/01/15 03:33:33;;;;;;;1.45;0.32;;;1.50;99.90;;;;;;5014517;28;20556;-74
2024/01/15 03:35:59;;;;;;;2.20;0.35;;;1.50;99.90;;;;;;5023988;28;20041;-75
2024/01/15 03:38:26;;;;;;;1.17;0.52;;;1.50;99.90;;;;;;4997121;28;20049;-75
2024/01/15 03:40:52;;;;;;;1.38;0.70;;;1.60;99.90;;;;;;5011633;28;20548;-74
2024/01/15 03:43:18;;;;;;;4.85;0.88;;;1.60;99.90;;;;;;5012842;28;20030;-75
2024/01/15 03:45:43;;;;;;;3.95;0.80;;;1.50;99.90;;;;;;5005651;28;20133;-74
2024/01/15 03:48:09;;;;;;;2.38;0.85;;;1.60;99.90;;;;;;4980516;28;20049;-75
2024/01/15 03:50:35;;;;;;;2.85;0.68;;;1.60;99.90;;;;;;5033833;28;20044;-75
2024/01/15 03:53:00;;;;;;;1.58;0.30;;;1.60;99.90;;;;;;4984131;28;20038;-74
2024/01/15 03:55:26;;;;;;;3.47;0.63;;;1.60;99.90;;;;;;5006338;28;20049;-75
2024/01/15 03:57:52;;;;;;;0.77;0.25;;;1.60;99.90;;;;;;5019810;28;20046;-74
2024/01/15 04:00:18;;;;;;;1.27;0.43;;;1.60;99.90;;;;;;5023638;28;20076;-74
2024/01/15 04:02:44;;;;;;;1.25;0.68;;;1.60;99.90;;;;;;4999206;28;20045;-74
2024/01/15 04:05:10;;;;;;;2.42;0.43;;;1.60;99.90;;;;;;5013078;28;20049;-74
2024/01/15 04:07:35;;;;;;;1.65;0.50;;;1.60;99.90;;;;;;5006702;28;20049;-74
2024/01/15 04:10:01;;;;;;;5.57;0.88;;;1.60;99.90;;;;;;5009888;28;20468;-74
2024/01/15 04:12:27;;;;;;;7.70;0.98;;;1.50;99.90;;;;;;5020522;28;20050;-74
2024/01/15 04:14:53;;;;;;;5.78;1.02;;;1.50;99.90;;;;;;4990169;28;20033;-74
2024/01/15 04:17:18;;;;;;;2.47;0.40;;;1.50;99.90;;;;;;5006347;28;20037;-73
2024/01/15 04:19:44;;;;;;;1.33;0.30;;;1.60;99.90;;;;;;5022221;28;20097;-74
2024/01/15 04:22:10;;;;;;;4.68;0.55;;;1.60;99.90;;;;;;5001192;28;20053;-74
2024/01/15 04:24:36;;;;;;;6.15;0.40;;;1.60;99.90;;;;;;4991203;28;20049;-74
2024/01/15 04:27:01;;;;;;;4.90;0.50;;;1.60;99.90;;;;;;5021732;28;20065;-74
2024/01/15 04:29:27;;;;;;;1.45;1.02;;;1.60;99.90;;;;;;5022581;28;20045;-74
2024/01/15 04:31:53;;;;;;;6.50;1.40;;;1.70;99.90;;;;;;5017682;28;20033;-74
2024/01/15 04:34:19;;;;;;;3.67;0.30;;;1.60;99.90;;;;;;5005804;28;20037;-74
2024/01/15 04:36:44;;;;;;;4.22;0.52;;;1.70;99.90;;;;;;5006831;28;20056;-74
2024/01/15 04:39:11;;;;;;;5.43;0.88;;;1.70;99.90;;;;;;5038115;28;20099;-74
2024/01/15 04:41:37;;;;;;;0.90;0.40;;;1.60;99.90;;;;;;5023722;28;20107;-74
2024/01/15 04:44:03;;;;;;;2.50;0.65;;;1.60;99.90;;;;;;5003546;28;20037;-75
2024/01/15 04:46:29;;;;;;;9.93;0.50;;;1.60;99.90;;;;;;5020684;28;20487;-74
2024/01/15 04:48:54;;;;;;;1.35;0.45;;;1.60;99.90;;;;;;5004161;28;20033;-74
2024/01/15 04:51:20;;;;;;;2.78;0.75;;;1.60;99.90;;;;;;4983909;28;20079;-74
2024/01/15 04:53:46;;;;;;;0.75;0.60;;;1.50;99.90;;;;;;5000763;28;20581;-74
2024/01/15 04:56:11;;;;;;;6.60;1.17;;;1.60;99.90;;;;;;5016594;28;20037;-75
2024/01/15 04:58:37;;;;;;;3.22;1.05;;;1.60;99.90;;;;;;5017208;28;20047;-75
2024/01/15 05:01:03;;;;;;;7.05;0.68;;;1.60;99.90;;;;;;5000382;28;20079;-74
2024/01/15 05:03:29;;;;;;;6.43;0.65;;;1.60;99.90;;;;;;5015304;28;20060;-75
2024/01/15 05:05:55;;;;;;;1.05;0.40;;;1.50;99.90;;;;;;5014696;28;20045;-75
2024/01/15 05:08:21;;;;;;;2.65;1.35;;;1.60;99.90;;;;;;5016390;28;20587;-75
2024/01/15 05:10:48;;;;;;;0.65;0.30;;;1.60;99.90;;;;;;5000428;28;20429;-74
2024/01/15 05:13:13;;;;;;;5.35;0.40;;;1.40;99.90;;;;;;5002952;28;20042;-74
2024/01/15 05:15:39;;;;;;;0.57;0.30;;;1.40;99.90;;;;;;5005553;28;20036;-74
2024/01/15 05:18:06;;;;;;;0.32;0.20;;;1.40;99.90;;;;;;5020536;28;20054;-74
2024/01/15 05:20:31;;;;;;;0.88;0.82;;;1.30;99.90;;;;;;5036454;28;20152;-74
2024/01/15 05:22:57;;;;;;;7.38;0.73;;;1.30;99.90;;;;;;5007448;28;20488;-74
2024/01/15 05:25:22;;;;;;;8.77;1.35;;;1.30;99.90;;;;;;5004227;28;20078;-74
2024/01/15 05:27:48;;;;;;;8.82;0.98;;;1.20;99.90;;;;;;4998821;28;20042;-74
2024/01/15 05:30:14;;;;;;;2.60;0.73;;;1.20;99.90;;;;;;5014648;28;20099;-75
2024/01/15 05:32:40;;;;;;;1.85;0.98;;;1.20;99.90;;;;;;4999330;28;20053;-74
2024/01/15 05:35:06;;;;;;;0.60;0.57;;;1.10;99.90;;;;;;4982678;28;20041;-74
2024/01/15 05:37:32;;;;;;;3.40;1.45;;;1.10;99.90;;;;;;4999978;28;20053;-74
2024/01/15 05:39:57;;;;;;;1.13;0.47;;;1.10;99.90;;;;;;5014419;28;20073;-74
2024/01/15 05:42:23;;;;;;;4.43;0.82;;;1.20;99.90;;;;;;5012379;28;20038;-74
2024/01/15 05:44:48;;;;;;;0.10;0.10;;;1.20;99.90;;;;;;5014530;28;20097;-74
2024/01/15 05:47:14;;;;;;;1.95;0.65;;;1.10;99.90;;;;;;5031468;28;20049;-75
2024/01/15 05:49:40;;;;;;;17.55;1.42;;;1.20;99.90;;;;;;5016432;28;20065;-74
2024/01/15 05:52:06;;;;;;;0.63;0.38;;;1.20;99.90;;;;;;4997466;28;20099;-75
2024/01/15 05:54:32;;;;;;;0.52;0.30;;;1.20;99.90;;;;;;5000636;28;20046;-75
2024/01/15 05:56:57;;;;;;;12.68;1.80;;;1.10;99.90;;;;;;5014677;28;20045;-75
2024/01/15 05:59:23;;;;;;;9.18;0.60;;;1.10;99.90;;;;;;5001797;28;20171;-75
2024/01/15 06:01:49;;;;;;;0.43;0.38;;;1.10;99.90;;;;;;4998548;28;20087;-75
2024/01/15 06:04:14;;;;;;;4.13;0.90;;;1.20;99.90;;;;;;4998808;28;20044;-75
2024/01/15 06:06:40;;;;;;;0.77;0.22;;;1.20;99.90;;;;;;5000560;28;20255;-75
2024/01/15 06:09:06;;;;;;;1.10;0.40;;;1.10;99.90;;;;;;5014523;28;20033;-75
2024/01/15 06:11:32;;;;;;;2.85;0.52;;;1.10;99.90;;;;;;4984321;28;20073;-75
2024/01/15 06:14:00;;;;;;;2.65;0.43;;;1.10;99.90;;;;;;5029363;28;20068;-75
2024/01/15 06:16:26;;;;;;;0.13;0.13;;;1.20;99.90;;;;;;5017113;28;20049;-75
2024/01/15 06:18:51;;;;;;;1.63;0.25;;;1.10;99.90;;;;;;5018706;28;20037;-75
2024/01/15 06:21:17;;;;;;;3.50;0.40;;;1.10;99.90;;;;;;5018084;28;20057;-75
2024/01/15 06:23:43;;;;;;;4.13;0.90;;;1.10;99.90;;;;;;5003866;28;20049;-75
2024/01/15 06:26:09;;;;;;;2.60;0.32;;;1.20;99.90;;;;;;4999616;28;20049;-75
2024/01/15 06:28:34;;;;;;;0.40;0.30;;;1.20;99.90;;;;;;5001421;28;20050;-75
2024/01/15 06:31:00;;;;;;;3.45;0.47;;;1.20;99.90;;;;;;4984796;28;20045;-76
2024/01/15 06:33:26;;;;;;;0.80;0.20;;;1.20;99.90;;;;;;5036399;28;20045;-76
2024/01/15 06:35:51;;;;;;;0.85;0.22;;;1.10;99.90;;;;;;5020249;28;20045;-76
2024/01/15 06:38:17;;;;;;;1.00;0.30;;;1.20;99.90;;;;;;5019802;28;20137;-76
2024/01/15 06:40:45;;;;;;;5.65;0.75;;;1.10;99.90;;;;;;5019565;28;20133;-76
2024/01/15 06:43:17;;;;;;;1.23;0.40;;;1.10;99.90;;;;;;5001521;28;20037;-76
2024/01/15 06:45:44;;;;;;;2.30;0.40;;;1.10;99.90;;;;;;5038705;28;20084;-76
2024/01/15 06:48:10;;;;;;;7.85;1.30;;;1.10;99.90;;;;;;5018295;28;20034;-76
2024/01/15 06:50:35;;;;;;;1.33;0.50;;;1.00;99.90;;;;;;5034271;28;20109;-76
2024/01/15 06:53:01;;;;;;;4.00;0.63;;;1.00;99.90;;;;;;5021650;28;20045;-76
2024/01/15 06:55:27;;;;;;;2.10;1.38;;;1.00;99.90;;;;;;5016072;28;20045;-76
2024/01/15 06:57:53;;;;;;;1.05;0.50;;;0.90;99.90;;;;;;5017044;28;20114;-76
2024/01/15 07:00:19;;;;;;;1.38;0.73;;;0.90;99.90;;;;;;4984101;28;20108;-76
2024/01/15 07:02:45;;;;;;;5.00;0.43;;;1.00;99.90;;;;;;5019910;28;20052;-76
2024/01/15 07:05:11;;;;;;;1.10;0.52;;;0.80;99.90;;;;;;5035194;28;20052;-76
2024/01/15 07:07:37;;;;;;;5.05;0.43;;;0.90;99.90;;;;;;5034395;28;20050;-76
2024/01/15 07:10:04;;;;;;;7.90;0.90;;;0.90;99.90;;;;;;5017150;28;20054;-76
2024/01/15 07:12:30;;;;;;;16.83;1.27;;;0.90;99.90;;;;;;5018156;28;20045;-76
2024/01/15 07:14:56;;;;;;;14.60;1.65;;;0.90;99.90;;;;;;5038597;28;20071;-76
2024/01/15 07:17:22;;;;;;;5.13;0.52;;;1.00;99.90;;;;;;5034525;28;20079;-76
2024/01/15 07:19:48;;;;;;;0.85;0.30;;;1.00;99.90;;;;;;5017377;28;20079;-76
2024/01/15 07:22:14;;;;;;;2.75;0.68;;;1.00;99.90;;;;;;5001728;28;20083;-76
2024/01/15 07:24:40;;;;;;;5.95;0.90;;;1.00;99.90;;;;;;5032889;28;20046;-76
2024/01/15 07:27:06;;;;;;;2.92;0.20;;;1.10;99.90;;;;;;5001266;28;20101;-76
2024/01/15 07:29:36;;;;;;;9.23;0.68;;;1.00;99.90;;;;;;5001175;28;20059;-76
2024/01/15 07:32:02;;;;;;;1.60;0.65;;;1.00;99.90;;;;;;4997163;28;20033;-76
2024/01/15 07:34:27;;;;;;;1.35;0.47;;;1.00;99.90;;;;;;5019010;28;20081;-76
2024/01/15 07:36:53;;;;;;;4.57;0.43;;;1.00;99.90;;;;;;5002678;28;20037;-76
2024/01/15 07:39:18;;;;;;;1.98;0.38;;;1.10;99.90;;;;;;5016845;28;20492;-76
2024/01/15 07:41:44;;;;;;;0.40;0.40;;;1.10;99.90;;;;;;5017439;28;20534;-76
2024/01/15 07:44:10;;;;;;;0.32;0.32;;;1.00;99.90;;;;;;5038773;28;20042;-76
2024/01/15 07:46:36;;;;;;;0.17;0.17;;;1.00;99.90;;;;;;5003186;28;20029;-75
2024/01/15 07:49:02;;;;;;;3.95;0.52;;;1.00;99.90;;;;;;5017528;28;20042;-75
2024/01/15 07:51:27;;;;;;;1.25;0.30;;;0.90;99.90;;;;;;5016173;28;20044;-75
2024/01/15 07:53:55;;;;;;;1.27;0.57;;;0.80;99.90;;;;;;5017626;28;20038;-75
2024/01/15 07:56:21;;;;;;;7.03;1.48;;;0.80;99.90;;;;;;5032296;28;20049;-75
2024/01/15 07:58:47;;;;;;;5.45;0.65;;;0.90;99.90;;;;;;5032208;28;20047;-75
2024/01/15 08:01:12;;;;;;;1.60;0.50;;;0.80;99.90;;;;;;5034004;28;20042;-75
2024/01/15 08:03:38;;;;;;;2.50;0.43;;;0.80;99.90;;;;;;5020678;28;20037;-74
2024/01/15 08:06:05;;;;;;;0.55;0.55;;;0.80;99.90;;;;;;5014133;28;20073;-74
2024/01/15 08:08:31;;;;;;;0.25;0.17;;;0.80;99.90;;;;;;5019932;28;20053;-74
2024/01/15 08:10:57;;;;;;;1.95;0.30;;;0.80;99.90;;;;;;5034324;28;20081;-73
2024/01/15 08:13:23;;;;;;;1.13;0.90;;;0.80;99.90;;;;;;5012918;28;20045;-74
2024/01/15 08:15:50;;;;;;;3.92;0.57;;;0.80;99.90;;;;;;5018036;28;20111;-74
2024/01/15 08:18:15;;;;;;;1.15;1.05;;;0.90;99.90;;;;;;5004900;28;20076;-74
2024/01/15 08:20:41;;;;;;;1.50;0.52;;;0.80;99.90;;;;;;5022729;28;20053;-73
2024/01/15 08:23:07;;;;;;;1.27;1.10;;;0.80;99.90;;;;;;5039640;28;20052;-74
2024/01/15 08:25:32;;;;;;;0.17;0.17;;;0.90;99.90;;;;;;5005971;28;20041;-74
2024/01/15 08:27:58;;;;;;;0.55;0.32;;;0.90;99.90;;;;;;4988610;28;21218;-73
2024/01/15 08:30:27;;;;;;;0.32;0.32;;;0.90;99.90;;;;;;5038335;28;20048;-73
2024/01/15 08:32:56;;;;;;;9.40;0.88;;;0.90;99.90;;;;;;5023712;28;20029;-74
2024/01/15 08:35:22;;;;;;;0.55;0.55;;;1.00;99.90;;;;;;5021912;28;20513;-73
2024/01/15 08:37:54;;;;;;;4.93;0.68;;;1.00;99.90;;;;;;5022012;28;20038;-74
2024/01/15 08:40:20;;;;;;;;;;;1.00;99.90;;;;;;5012908;28;20041;-74
2024/01/15 08:42:46;;;;;;;0.25;0.25;;;1.20;99.90;;;;;;5013177;28;19947;-74
2024/01/15 08:45:12;;;;;;;1.15;0.45;;;1.30;99.90;;;;;;5056782;28;20071;-74
2024/01/15 08:47:38;;;;;;;9.13;0.77;;;1.30;99.90;;;;;;5010735;28;20048;-74
2024/01/15 08:50:04;;;;;;;3.15;0.75;;;1.50;99.90;;;;;;5023858;28;20041;-75
2024/01/15 08:52:30;;;;;;;6.78;0.57;;;1.40;99.90;;;;;;5014338;28;20370;-77
2024/01/15 08:55:00;;;;;;;0.28;0.22;;;1.50;99.90;;;;;;5029791;28;20105;-77
2024/01/15 08:57:26;;;;;;;1.17;1.08;;;1.60;99.90;;;;;;5016716;28;20060;-77
2024/01/15 08:59:52;;;;;;;2.45;0.70;;;1.60;99.90;;;;;;5031313;28;20033;-78
2024/01/15 09:02:17;;;;;;;0.43;0.43;;;1.60;99.90;;;;;;5011603;28;20511;-78
2024/01/15 09:04:43;;;;;;;6.93;0.95;;;1.60;99.90;;;;;;5031550;28;20045;-78
2024/01/15 09:07:10;;;;;;;1.45;0.75;;;1.60;99.90;;;;;;4998984;28;20045;-77
2024/01/15 09:09:36;;;;;;;6.32;0.60;;;1.50;99.90;;;;;;5013845;28;20041;-77
2024/01/15 09:12:02;;;;;;;0.77;0.30;;;1.50;99.90;;;;;;5031770;28;20038;-77
2024/01/15 09:14:28;;;;;;;3.72;0.95;;;1.40;99.90;;;;;;5031332;28;20046;-77
2024/01/15 09:16:54;;;;;;;2.83;0.38;;;1.50;99.90;;;;;;5011560;28;20049;-77
2024/01/15 09:19:20;;;;;;;0.50;0.50;;;1.50;99.90;;;;;;5015319;28;20084;-77
2024/01/15 09:21:45;;;;;;;1.58;0.50;;;1.50;99.90;;;;;;5029014;28;20546;-78
2024/01/15 09:24:11;;;;;;;0.30;0.30;;;1.60;99.90;;;;;;5016790;28;20045;-77
2024/01/15 09:26:37;;;;;;;3.33;0.47;;;1.60;99.90;;;;;;5015108;28;20053;-77
2024/01/15 09:29:02;;;;;;;5.05;0.45;;;1.80;99.90;;;;;;5022498;28;20488;-77
2024/01/15 09:31:28;;;;;;;1.00;0.90;;;2.20;99.90;;;;;;5030955;28;20049;-77
2024/01/15 09:33:59;;;;;;;5.80;0.38;;;2.30;99.90;;;;;;5013979;28;20099;-77
2024/01/15 09:36:25;;;;;;;3.25;0.75;;;2.30;99.90;;;;;;5016315;28;20139;-78
2024/01/15 09:38:51;;;;;;;5.72;1.13;;;2.20;99.90;;;;;;5010749;28;20037;-78
2024/01/15 09:41:17;;;;;;;5.22;0.68;;;2.10;99.90;;;;;;5032076;28;20044;-78
2024/01/15 09:43:43;;;;;;;5.22;0.40;;;2.00;99.90;;;;;;5030227;28;20049;-78
2024/01/15 09:46:09;;;;;;;1.88;0.75;;;1.90;99.90;;;;;;5015699;28;20152;-77
2024/01/15 09:48:35;;;;;;;2.42;0.45;;;1.90;99.90;;;;;;5031421;28;20053;-78
2024/01/15 09:51:05;;;;;;;1.95;0.43;;;2.00;99.90;;;;;;4997968;28;20109;-78
2024/01/15 09:53:31;;;;;;;2.70;0.50;;;2.00;99.90;;;;;;5028707;28;20587;-77
2024/01/15 09:55:58;;;;;;;0.85;0.73;;;2.00;99.90;;;;;;5029886;28;20050;-77
2024/01/15 09:58:24;;;;;;;1.27;0.30;;;2.00;99.90;;;;;;5031819;28;20053;-78
2024/01/15 10:00:51;;;;;;;1.38;0.30;;;1.90;99.90;;;;;;4997494;28;20408;-78
2024/01/15 10:03:17;;;;;;;1.33;0.45;;;1.90;99.90;;;;;;5016249;28;20042;-78
2024/01/15 10:05:44;;;;;;;3.92;0.20;;;1.70;99.90;;;;;;5010654;28;20094;-77
2024/01/15 10:08:10;;;;;;;0.38;0.20;;;1.80;99.90;;;;;;5035132;28;20175;-77
2024/01/15 10:10:36;;;;;;;0.25;0.25;;;1.80;99.90;;;;;;5014232;28;20041;-77
2024/01/15 10:13:04;;;;;;;8.38;0.60;;;1.80;99.90;;;;;;5030098;28;20046;-77
2024/01/15 10:15:29;;;;;;;1.60;0.50;;;1.70;99.90;;;;;;5035089;28;20106;-77
2024/01/15 10:17:55;;;;;;;4.68;0.47;;;1.80;99.90;;;;;;5014922;28;20061;-77
2024/01/15 10:20:23;;;;;;;1.83;0.40;;;1.90;99.90;;;;;;5016705;28;20057;-78
2024/01/15 10:22:50;;;;;;;0.65;0.38;;;2.20;99.90;;;;;;5031629;28;20046;-77
2024/01/15 10:25:22;;;;;;;4.40;0.52;;;2.30;99.90;;;;;;5027543;28;20052;-77
2024/01/15 10:28:03;;;;;;;0.10;0.10;;;2.20;99.90;;;;;;5014216;28;20048;-78
2024/01/15 10:30:28;;;;;;;0.20;0.20;;;2.10;99.90;;;;;;5012111;28;20312;-78
2024/01/15 10:33:02;;;;;;;1.45;0.17;;;2.10;99.90;;;;;;5032236;28;20084;-78
2024/01/15 10:35:32;;;;;;;1.92;0.47;;;2.00;99.90;;;;;;5030393;28;20049;-78
2024/01/15 10:38:02;;;;;;;2.60;0.55;;;2.10;99.90;;;;;;5031376;28;20072;-78
2024/01/15 10:40:28;;;;;;;0.10;0.10;;;2.10;99.90;;;;;;5033658;28;20081;-77
2024/01/15 10:42:54;;;;;;;2.00;0.90;;;2.20;99.90;;;;;;5031678;28;20072;-77
2024/01/15 10:45:20;;;;;;;0.55;0.20;;;2.20;99.90;;;;;;5014337;28;20041;-77
2024/01/15 10:47:46;;;;;;;0.57;0.55;;;2.30;99.90;;;;;;5013618;28;20033;-77
2024/01/15 10:50:12;;;;;;;3.25;0.60;;;2.40;99.90;;;;;;5014355;28;20424;-77
2024/01/15 10:52:40;;;;;;;1.58;0.40;;;2.40;99.90;;;;;;5029063;28;20050;-77
2024/01/15 10:55:11;;;;;;;1.02;0.10;;;2.40;99.90;;;;;;4995020;28;20049;-77
2024/01/15 10:57:39;;;;;;;0.55;0.38;;;2.60;99.90;;;;;;5028886;28;20038;-76
2024/01/15 11:00:06;;;;;;;0.10;0.10;;;2.80;99.90;;;;;;5029547;28;20068;-78
2024/01/15 11:02:34;;;;;;;1.45;0.30;;;2.90;99.90;;;;;;5014752;28;20049;-77
2024/01/15 11:05:00;;;;;;;1.35;0.20;;;2.80;99.90;;;;;;5031647;28;20080;-76
2024/01/15 11:07:26;;;;;;;0.52;0.52;;;2.70;99.90;;;;;;5016571;28;20053;-76
2024/01/15 11:09:52;;;;;;;1.10;0.25;;;2.70;99.90;;;;;;5030947;28;20496;-76
2024/01/15 11:12:19;;;;;;;0.00;0.00;;;2.80;99.90;;;;;;5017364;28;20029;-77
2024/01/15 11:14:51;;;;;;;1.08;0.20;;;2.70;99.90;;;;;;5034171;28;20146;-77
2024/01/15 11:17:18;;;;;;;5.00;0.20;;;2.60;99.90;;;;;;5018602;28;20057;-77
2024/01/15 11:19:51;;;;;;;5.68;0.47;;;2.60;99.90;;;;;;5035586;28;20041;-77
2024/01/15 11:22:29;;;;;;;2.22;0.28;;;2.50;99.90;;;;;;5031619;28;20060;-77
2024/01/15 11:24:55;;;;;;;4.35;0.22;;;2.40;99.90;;;;;;5023092;28;20116;-77
2024/01/15 11:27:47;;;;;;;0.20;0.13;;;2.20;99.90;;;;;;5038815;28;20076;-78
2024/01/15 11:30:14;;;;;;;0.32;0.28;;;2.10;99.90;;;;;;5031114;28;20139;-77
2024/01/15 11:32:43;;;;;;;0.50;0.10;;;2.10;99.90;;;;;;5023671;28;20056;-77
2024/01/15 11:35:13;;;;;;;0.30;0.20;;;2.10;99.90;;;;;;5037618;28;20049;-77
2024/01/15 11:37:51;;;;;;;1.17;1.08;;;2.10;99.90;;;;;;5023137;28;20041;-78
2024/01/15 11:40:21;;;;;;;2.45;0.50;;;2.20;99.90;;;;;;5039392;28;20534;-77
2024/01/15 11:42:48;;;;;;;1.38;0.25;;;2.10;99.90;;;;;;5019340;28;20064;-77
2024/01/15 11:45:18;;;;;;;0.30;0.25;;;2.20;99.90;;;;;;5013087;28;20080;-77
2024/01/15 11:48:08;;;;;;;0.10;0.10;;;2.20;99.90;;;;;;5038348;28;20057;-77
2024/01/15 11:50:34;;;;;;;1.17;0.30;;;2.20;99.90;;;;;;5039688;28;20052;-76
2024/01/15 11:53:07;;;;;;;0.43;0.20;;;2.30;99.90;;;;;;5035783;28;20046;-76
2024/01/15 11:55:40;;;;;;;0.05;0.05;;;2.30;99.90;;;;;;5019625;28;20041;-76
2024/01/15 11:58:10;;;;;;;0.75;0.25;;;2.40;99.90;;;;;;5040194;28;20345;-76
2024/01/15 12:00:47;;;;;;;0.95;0.10;;;2.40;99.90;;;;;;5038364;28;20057;-76
2024/01/15 12:03:13;;;;;;;0.30;0.30;;;2.40;99.90;;;;;;5023938;28;20072;-76
2024/01/15 12:05:39;;;;;;;0.17;0.17;;;2.40;99.90;;;;;;5021566;28;20042;-76
2024/01/15 12:08:10;;;;;;;0.25;0.25;;;2.40;99.90;;;;;;5022587;28;20045;-76
2024/01/15 12:10:37;;;;;;;3.53;0.40;;;2.40;99.90;;;;;;5006926;28;20046;-76
2024/01/15 12:13:09;;;;;;;0.10;0.10;;;2.50;99.90;;;;;;5003271;28;20041;-76
2024/01/15 12:15:35;;;;;;;1.45;0.20;;;2.70;99.90;;;;;;5060103;28;20045;-77
2024/01/15 12:18:02;;;;;;;0.47;0.25;;;2.80;99.90;;;;;;5002286;28;20046;-77
2024/01/15 12:20:32;;;;;;;3.75;0.40;;;2.80;99.90;;;;;;5033690;28;20061;-78
2024/01/15 12:22:58;;;;;;;1.60;0.22;;;2.60;99.90;;;;;;5038253;28;20041;-77
2024/01/15 12:25:25;;;;;;;0.20;0.20;;;2.50;99.90;;;;;;5039315;28;20144;-77
2024/01/15 12:27:51;;;;;;;0.10;0.10;;;2.40;99.90;;;;;;5010914;28;20048;-78
2024/01/15 12:30:18;;;;;;;1.25;1.02;;;2.30;99.90;;;;;;5021089;28;20045;-77
2024/01/15 12:32:44;;;;;;;0.50;0.47;;;2.20;99.90;;;;;;5039056;28;20041;-77
2024/01/15 12:35:11;;;;;;;0.10;0.10;;;2.10;99.90;;;;;;5038006;28;20500;-77
2024/01/15 12:37:38;;;;;;;0.30;0.20;;;2.00;99.90;;;;;;5038613;28;20356;-78
2024/01/15 12:40:06;;;;;;;0.57;0.30;;;1.90;99.90;;;;;;5038209;28;20485;-77
2024/01/15 12:42:33;;;;;;;1.38;0.22;;;1.90;99.90;;;;;;5035801;28;20050;-77
2024/01/15 12:45:00;;;;;;;0.80;0.47;;;1.80;99.90;;;;;;5037816;28;20030;-77
2024/01/15 12:47:26;;;;;;;2.75;0.35;;;1.80;99.90;;;;;;5017398;28;20046;-77
2024/01/15 12:49:55;;;;;;;0.30;0.30;;;1.80;99.90;;;;;;5021902;28;20133;-77
2024/01/15 12:52:24;;;;;;;0.70;0.10;;;1.80;99.90;;;;;;5001770;28;20109;-76
2024/01/15 12:54:50;;;;;;;3.30;0.55;;;1.80;99.90;;;;;;5021321;28;20468;-77